Time;durP1;ratioP1;P1;durP2;ratioP2;P2;SDS_P1;SDS_P2;PMS_P1;PMS_P2;Temp;Humidity;BMP_temperature;BMP_pressure;BME280_temperature;BME280_humidity;BME280_pressure;Samples;Min_cycle;Max_cycle;Signal;HPM_P1;HPM_P2
2022/08/20 00:01:07;;;;;;;14.93;13.30;;;;;;;19.53;78.95;96592.81;4976151;28;20051;-80
2022/08/20 00:03:43;;;;;;;13.45;12.20;;;;;;;19.54;78.87;96585.69;4974990;28;20061;-80
2022/08/20 00:06:27;;;;;;;13.68;12.32;;;;;;;19.54;78.24;96590.97;4976278;28;20043;-80
2022/08/20 00:09:00;;;;;;;15.55;12.77;;;;;;;19.54;77.73;96593.63;4978173;28;20082;-79
2022/08/20 00:11:37;;;;;;;15.35;12.98;;;;;;;19.53;79.73;96595.47;4975206;28;20133;-80
2022/08/20 00:14:10;;;;;;;;;;;;;;;19.54;79.10;96596.25;4979845;28;20081;-80
2022/08/20 00:16:45;;;;;;;13.95;12.18;;;;;;;19.52;78.45;96598.34;4979933;28;20384;-80
2022/08/20 00:19:22;;;;;;;14.60;12.77;;;;;;;19.53;78.89;96598.13;4978524;28;20050;-80
2022/08/20 00:21:55;;;;;;;14.40;11.70;;;;;;;19.54;79.45;96598.91;4980207;28;20078;-80
2022/08/20 00:27:21;;;;;;;13.07;11.70;;;;;;;19.52;79.59;96598.34;4975239;28;20078;-80
2022/08/20 00:30:02;;;;;;;12.60;11.30;;;;;;;19.56;79.62;96599.47;4974022;28;20050;-79
2022/08/20 00:32:54;;;;;;;12.30;10.93;;;;;;;19.57;79.25;96606.38;4974335;28;20069;-80
2022/08/20 00:35:34;;;;;;;12.27;11.07;;;;;;;19.59;78.51;96612.25;4975166;28;20051;-80
2022/08/20 00:38:14;;;;;;;10.65;9.55;;;;;;;19.59;77.25;96609.59;4974876;28;20070;-79
2022/08/20 00:40:59;;;;;;;12.27;11.07;;;;;;;19.60;77.16;96611.19;4975292;28;20090;-80
2022/08/20 00:43:43;;;;;;;11.50;10.35;;;;;;;19.60;78.01;96619.13;4975716;28;20058;-80
2022/08/20 00:46:26;;;;;;;11.15;10.00;;;;;;;19.62;77.46;96617.06;4975201;28;20053;-80
2022/08/20 00:49:06;;;;;;;11.63;10.45;;;;;;;19.65;78.11;96618.41;4974338;28;20051;-80
2022/08/20 00:51:49;;;;;;;12.43;10.07;;;;;;;19.62;76.31;96622.34;4975967;28;20055;-80
2022/08/20 00:54:24;;;;;;;13.07;11.57;;;;;;;19.60;76.20;96627.06;4975095;28;20062;-80
2022/08/20 00:57:09;;;;;;;11.27;10.23;;;;;;;19.63;78.67;96629.22;4975098;28;20524;-80
2022/08/20 00:59:46;;;;;;;11.32;10.23;;;;;;;19.60;76.49;96632.38;4978656;28;20061;-80
2022/08/20 01:02:29;;;;;;;11.02;9.40;;;;;;;19.59;75.97;96629.94;4978998;28;20398;-80
2022/08/20 01:05:08;;;;;;;11.02;9.90;;;;;;;19.54;76.03;96634.09;4975216;28;20055;-80
2022/08/20 01:07:55;;;;;;;9.48;8.60;;;;;;;19.52;76.60;96638.03;4977202;28;20409;-80
2022/08/20 01:13:22;;;;;;;13.05;10.27;;;;;;;19.56;79.89;96645.25;4975056;28;20062;-80
2022/08/20 01:15:58;;;;;;;10.65;9.60;;;;;;;19.55;76.64;96641.00;4975070;28;20145;-80
2022/08/20 01:18:33;;;;;;;10.73;9.63;;;;;;;19.51;76.27;96645.16;4977333;28;20061;-80
2022/08/20 01:24:04;;;;;;;11.32;9.40;;;;;;;19.46;75.94;96641.63;4974493;28;20581;-79
2022/08/20 01:26:44;;;;;;;9.65;8.75;;;;;;;19.45;76.20;96643.47;4975674;28;20078;-80
2022/08/20 01:29:29;;;;;;;10.25;9.20;;;;;;;19.48;78.86;96644.84;4978827;28;20049;-80
2022/08/20 01:32:06;;;;;;;10.57;8.43;;;;;;;19.48;76.33;96650.13;4991649;28;20055;-79
2022/08/20 01:34:39;;;;;;;9.70;8.70;;;;;;;19.48;77.63;96650.13;4980941;28;20134;-79
2022/08/20 01:37:10;;;;;;;9.60;8.40;;;;;;;19.49;76.36;96646.44;4974874;28;20051;-80
2022/08/20 01:39:45;;;;;;;8.35;7.63;;;;;;;19.50;76.99;96648.88;4977333;28;20074;-80
2022/08/20 01:42:26;;;;;;;11.65;8.40;;;;;;;19.55;78.53;96642.88;4974857;28;20069;-80
2022/08/20 01:45:08;;;;;;;9.55;8.60;;;;;;;19.54;76.29;96638.59;4974994;28;20058;-80
2022/08/20 01:47:43;;;;;;;9.27;8.30;;;;;;;19.55;76.29;96645.50;4975847;28;20070;-80
2022/08/20 01:50:30;;;;;;;7.88;7.10;;;;;;;19.57;75.64;96648.72;4978825;28;20058;-80
2022/08/20 01:53:21;;;;;;;9.23;8.05;;;;;;;19.61;79.17;96643.75;4979103;28;20106;-79
2022/08/20 01:55:56;;;;;;;8.60;7.20;;;;;;;19.64;79.34;96644.06;4979262;28;20047;-80
2022/08/20 01:58:33;;;;;;;7.65;6.90;;;;;;;19.62;77.44;96643.50;4978854;28;20050;-80
2022/08/20 02:01:04;;;;;;;8.45;6.40;;;;;;;19.62;76.45;96651.44;4979571;28;20113;-80
2022/08/20 02:03:44;;;;;;;7.90;6.60;;;;;;;19.62;75.72;96658.59;4980723;28;20047;-80
2022/08/20 02:06:18;;;;;;;6.45;5.70;;;;;;;19.63;76.20;96649.59;4980316;28;20053;-80
2022/08/20 02:08:52;;;;;;;7.45;6.75;;;;;;;19.64;75.82;96657.31;4977586;28;20572;-80
2022/08/20 02:11:27;;;;;;;7.50;6.45;;;;;;;19.67;78.38;96664.75;4980790;28;20050;-80
2022/08/20 02:14:09;;;;;;;6.70;6.10;;;;;;;19.67;77.35;96659.47;4980938;28;20054;-80
2022/08/20 02:16:45;;;;;;;7.00;6.35;;;;;;;19.70;78.99;96658.22;4976530;28;20101;-80
2022/08/20 02:19:28;;;;;;;7.32;5.95;;;;;;;19.66;76.11;96665.03;4976676;28;20055;-80
2022/08/20 02:22:07;;;;;;;7.03;6.32;;;;;;;19.67;77.05;96662.13;4976529;28;20059;-80
2022/08/20 02:24:42;;;;;;;6.00;5.35;;;;;;;19.64;75.68;96659.94;4978258;28;20101;-79
2022/08/20 02:27:22;;;;;;;7.55;6.50;;;;;;;19.66;78.09;96665.81;4978447;28;20106;-79
2022/08/20 02:29:54;;;;;;;6.30;5.65;;;;;;;19.68;78.87;96663.75;5014751;23;20050;-79
2022/08/20 02:32:22;;;;;;;5.60;5.07;;;;;;;19.66;76.80;96655.22;5020012;28;20031;-79
2022/08/20 02:35:02;;;;;;;5.93;5.32;;;;;;;19.65;77.95;96661.53;5019889;28;20039;-80
2022/08/20 02:37:30;;;;;;;7.65;5.25;;;;;;;19.65;76.28;96663.41;5020196;28;20073;-80
2022/08/20 02:39:58;;;;;;;6.32;5.55;;;;;;;19.64;75.94;96659.16;5020163;28;20042;-80
2022/08/20 02:42:26;;;;;;;5.68;5.18;;;;;;;19.65;78.23;96666.03;5020143;28;20050;-80
2022/08/20 02:44:57;;;;;;;6.30;4.90;;;;;;;19.62;76.01;96667.31;5020115;28;20081;-79
2022/08/20 02:47:26;;;;;;;7.43;6.00;;;;;;;19.58;75.03;96668.03;5019904;28;20137;-79
2022/08/20 02:49:54;;;;;;;5.35;4.80;;;;;;;19.54;74.79;96665.06;5019726;28;20050;-80
2022/08/20 02:52:22;;;;;;;5.95;5.00;;;;;;;19.55;76.03;96662.19;5019547;28;20081;-79
2022/08/20 02:54:51;;;;;;;7.45;5.20;;;;;;;19.54;74.75;96659.75;5019604;28;20038;-79
2022/08/20 02:57:20;;;;;;;6.30;5.43;;;;;;;19.50;74.20;96663.91;5019443;28;20069;-79
2022/08/20 02:59:48;;;;;;;6.47;5.55;;;;;;;19.47;76.00;96656.47;5019501;28;20046;-79
2022/08/20 03:02:18;;;;;;;6.43;5.70;;;;;;;19.47;76.79;96657.25;5019289;28;20046;-78
2022/08/20 03:04:46;;;;;;;5.68;5.07;;;;;;;19.47;78.03;96659.13;5019690;28;20030;-80
2022/08/20 03:07:14;;;;;;;9.45;5.68;;;;;;;19.43;76.06;96657.97;5019168;28;20036;-79
2022/08/20 03:09:42;;;;;;;6.57;4.63;;;;;;;19.40;75.47;96653.97;5019352;28;20059;-79
2022/08/20 03:12:10;;;;;;;6.50;5.78;;;;;;;19.43;78.28;96663.28;5019216;28;20046;-80
2022/08/20 03:14:38;;;;;;;5.78;5.15;;;;;;;19.41;77.43;96663.50;5019766;28;20030;-79
2022/08/20 03:17:05;;;;;;;5.40;4.97;;;;;;;19.42;78.72;96666.97;5019061;28;20077;-79
2022/08/20 03:19:35;;;;;;;6.75;4.40;;;;;;;19.41;77.00;96665.34;5019457;28;20115;-79
2022/08/20 03:22:03;;;;;;;4.72;4.32;;;;;;;19.41;76.74;96655.56;5019110;28;20034;-79
2022/08/20 03:24:31;;;;;;;4.53;4.13;;;;;;;19.39;75.95;96664.78;5019105;28;20081;-79
2022/08/20 03:26:59;;;;;;;4.40;4.00;;;;;;;19.40;77.44;96659.25;5019215;28;20081;-80
2022/08/20 03:29:27;;;;;;;5.22;4.72;;;;;;;19.42;77.69;96661.69;5018834;28;20050;-79
2022/08/20 03:31:56;;;;;;;5.18;4.63;;;;;;;19.45;78.05;96658.53;5019157;28;20046;-79
2022/08/20 03:34:23;;;;;;;6.93;4.40;;;;;;;19.44;76.86;96656.91;5019167;28;20044;-79
2022/08/20 03:36:53;;;;;;;4.88;4.20;;;;;;;19.42;76.92;96657.19;5018313;28;20113;-79
2022/08/20 03:39:20;;;;;;;6.30;4.65;;;;;;;19.39;75.68;96651.53;5018179;28;20058;-79
2022/08/20 03:41:48;;;;;;;4.85;4.38;;;;;;;19.41;77.90;96660.84;5018147;28;20046;-80
2022/08/20 03:44:16;;;;;;;5.35;3.80;;;;;;;19.40;76.53;96661.09;5017290;28;20053;-79
2022/08/20 03:46:43;;;;;;;4.80;3.95;;;;;;;19.41;77.20;96666.13;5016743;28;20042;-79
2022/08/20 03:49:11;;;;;;;4.30;3.92;;;;;;;19.44;78.70;96664.84;5015924;28;20054;-80
2022/08/20 03:51:39;;;;;;;4.80;4.10;;;;;;;19.45;79.40;96667.28;5015628;28;20042;-79
2022/08/20 03:54:26;;;;;;;4.65;3.13;;;;;;;19.47;79.57;96664.41;5018459;28;20102;-82
2022/08/20 03:57:00;;;;;;;6.00;4.07;;;;;;;19.47;79.44;96669.69;5019234;28;20109;-82
2022/08/20 03:59:28;;;;;;;4.32;3.45;;;;;;;19.47;80.11;96659.13;5018780;28;20057;-80
2022/08/20 04:01:55;;;;;;;5.15;3.80;;;;;;;19.47;77.74;96665.19;5018940;28;20054;-81
2022/08/20 04:04:23;;;;;;;3.28;2.97;;;;;;;19.51;80.24;96662.91;5018818;28;20061;-81
2022/08/20 04:06:51;;;;;;;4.10;3.28;;;;;;;19.48;77.55;96666.00;5018864;28;20030;-79
2022/08/20 04:09:21;;;;;;;3.67;3.28;;;;;;;19.46;78.25;96676.84;5017760;28;20026;-79
2022/08/20 04:11:58;;;;;;;3.85;3.45;;;;;;;19.47;79.43;96674.97;5017887;28;20026;-81
2022/08/20 04:14:43;;;;;;;3.50;3.17;;;;;;;19.45;77.79;96677.84;5017270;28;20086;-80
2022/08/20 04:17:14;;;;;;;3.22;2.92;;;;;;;19.42;77.25;96678.34;5016485;28;20058;-80
2022/08/20 04:19:47;;;;;;;5.65;3.45;;;;;;;19.40;76.50;96683.06;5017518;28;20023;-79
2022/08/20 04:22:16;;;;;;;5.95;2.97;;;;;;;19.37;75.47;96685.38;5019052;28;20081;-80
2022/08/20 04:24:50;;;;;;;5.07;4.05;;;;;;;19.31;75.32;96687.91;5025827;28;20050;-79
2022/08/20 04:27:23;;;;;;;5.10;3.42;;;;;;;19.30;75.11;96688.94;5019436;28;20030;-79
2022/08/20 04:30:04;;;;;;;3.25;2.97;;;;;;;19.34;78.94;96692.72;5005210;28;20046;-80
2022/08/20 04:32:35;;;;;;;5.45;2.67;;;;;;;19.35;77.47;96694.34;5018668;28;20105;-80
2022/08/20 04:35:10;;;;;;;3.92;2.53;;;;;;;19.35;77.63;96699.63;5017823;28;20038;-80
2022/08/20 04:37:46;;;;;;;2.95;2.75;;;;;;;19.39;79.34;96707.09;5018264;28;20094;-80
2022/08/20 04:43:09;;;;;;;4.30;3.05;;;;;;;19.38;79.04;96713.44;5019283;28;20050;-80
2022/08/20 04:45:40;;;;;;;5.60;2.70;;;;;;;19.34;77.70;96703.31;5018376;28;20061;-80
2022/08/20 04:48:12;;;;;;;3.10;2.80;;;;;;;19.33;76.26;96711.50;5018405;28;20053;-79
2022/08/20 04:50:45;;;;;;;3.75;2.83;;;;;;;19.31;76.98;96709.09;5018064;28;20057;-80
2022/08/20 04:53:20;;;;;;;8.52;2.80;;;;;;;19.30;77.67;96712.75;5018310;28;20034;-80
2022/08/20 04:56:03;;;;;;;4.20;2.72;;;;;;;19.28;75.63;96724.59;5018347;28;20073;-79
2022/08/20 04:58:40;;;;;;;3.15;2.47;;;;;;;19.29;78.38;96718.28;5017539;28;20062;-79
2022/08/20 05:01:22;;;;;;;3.72;2.63;;;;;;;19.29;76.48;96719.09;5018183;28;20118;-80
2022/08/20 05:03:56;;;;;;;5.93;2.67;;;;;;;19.28;75.84;96722.75;5018541;28;20046;-80
2022/08/20 05:06:33;;;;;;;3.47;2.30;;;;;;;19.28;76.31;96724.59;5018274;28;20057;-80
2022/08/20 05:09:09;;;;;;;2.65;2.22;;;;;;;19.28;76.97;96725.41;5017569;28;20060;-79
2022/08/20 05:11:45;;;;;;;3.65;2.60;;;;;;;19.31;77.57;96732.88;5018332;28;20045;-79
2022/08/20 05:14:21;;;;;;;4.78;2.50;;;;;;;19.29;76.58;96734.97;5017562;28;20042;-80
2022/08/20 05:17:05;;;;;;;3.42;2.65;;;;;;;19.31;78.30;96735.53;5002268;28;20050;-80
2022/08/20 05:19:42;;;;;;;3.33;2.53;;;;;;;19.32;77.49;96731.03;5001935;28;20110;-80
2022/08/20 05:22:23;;;;;;;2.30;2.10;;;;;;;19.32;77.16;96731.84;5003446;28;20057;-80
2022/08/20 05:25:04;;;;;;;2.88;2.55;;;;;;;19.32;76.88;96742.41;5018079;28;20061;-80
2022/08/20 05:27:34;;;;;;;3.65;2.75;;;;;;;19.34;77.74;96736.91;5005026;28;20058;-79
2022/08/20 05:30:15;;;;;;;2.78;2.58;;;;;;;19.38;79.11;96731.97;4998701;28;20054;-80
2022/08/20 05:32:51;;;;;;;4.90;2.83;;;;;;;19.39;78.52;96731.69;5006356;28;20077;-81
2022/08/20 05:35:26;;;;;;;3.90;2.85;;;;;;;19.42;79.15;96735.75;5007537;28;20085;-83
2022/08/20 05:37:58;;;;;;;2.53;2.33;;;;;;;19.43;78.51;96737.34;5006981;28;20053;-83
2022/08/20 05:43:17;;;;;;;2.95;2.65;;;;;;;19.40;76.69;96748.41;4971580;28;20082;-81
2022/08/20 05:45:51;;;;;;;3.30;3.00;;;;;;;19.39;76.47;96749.41;4955901;28;20107;-81
2022/08/20 05:48:25;;;;;;;5.53;2.60;;;;;;;19.39;76.13;96746.78;4957885;28;20062;-80
2022/08/20 05:50:58;;;;;;;4.65;3.42;;;;;;;19.38;75.18;96745.19;4960579;28;20537;-81
2022/08/20 05:53:28;;;;;;;3.45;2.90;;;;;;;19.38;76.29;96750.47;4962717;28;20047;-81
2022/08/20 05:55:59;;;;;;;3.50;3.17;;;;;;;19.40;76.01;96745.75;4959128;28;20043;-81
2022/08/20 05:58:31;;;;;;;4.85;3.00;;;;;;;19.40;75.27;96748.41;4957033;28;20106;-80
2022/08/20 06:01:00;;;;;;;3.13;2.83;;;;;;;19.39;75.13;96752.06;4955786;28;20098;-80
2022/08/20 06:06:14;;;;;;;2.95;2.75;;;;;;;19.42;76.17;96752.41;4960131;28;20052;-80
2022/08/20 06:09:06;;;;;;;3.60;3.30;;;;;;;19.43;75.61;96747.91;4967322;28;20083;-82
2022/08/20 06:11:36;;;;;;;;;;;;;;;19.45;75.81;96749.28;4966081;28;20059;-81
2022/08/20 06:14:05;;;;;;;3.40;3.10;;;;;;;19.43;74.98;96743.41;5044895;23;19946;-80
2022/08/20 06:16:34;;;;;;;5.80;3.28;;;;;;;19.44;76.18;96744.22;4965884;28;20039;-78
2022/08/20 06:19:04;;;;;;;4.85;3.30;;;;;;;19.47;75.74;96749.06;4954321;28;20055;-79
2022/08/20 06:21:31;;;;;;;3.15;2.85;;;;;;;19.46;75.65;96748.25;4954382;29;20118;-80
2022/08/20 06:23:59;;;;;;;3.38;3.08;;;;;;;19.48;76.00;96742.72;4959080;28;20146;-79
2022/08/20 07:04:25;;;;;;;6.68;5.97;;;;;;;20.02;74.49;96759.09;4959894;28;20127;-79
2022/08/20 07:06:57;;;;;;;17.38;11.82;;;;;;;20.05;74.35;96756.00;5007705;23;20059;-80
2022/08/20 07:14:41;;;;;;;5.35;4.43;;;;;;;20.17;76.13;96763.88;5278453;23;20054;-79
2022/08/20 07:17:11;;;;;;;5.70;3.67;;;;;;;20.20;75.02;96763.38;4988884;28;20109;-79
2022/08/20 07:19:40;;;;;;;7.28;4.07;;;;;;;20.22;74.33;96760.50;4980392;28;20074;-79
2022/08/20 07:22:07;;;;;;;4.13;3.58;;;;;;;20.23;73.75;96759.47;4981285;28;20134;-80
2022/08/20 07:24:37;;;;;;;6.43;3.40;;;;;;;20.23;72.86;96762.13;4980911;28;20078;-80
2022/08/20 07:27:08;;;;;;;4.55;3.53;;;;;;;20.23;73.79;96756.84;4993212;28;20053;-79
2022/08/20 07:32:36;;;;;;;3.85;3.55;;;;;;;20.26;73.77;96757.13;4982464;28;20051;-80
2022/08/20 07:35:14;;;;;;;3.85;3.47;;;;;;;20.30;73.91;96762.78;4978019;28;20057;-80
2022/08/20 07:37:45;;;;;;;3.47;3.17;;;;;;;20.35;73.92;96765.50;4988250;28;20058;-79
2022/08/20 07:40:23;;;;;;;5.05;3.67;;;;;;;20.42;74.25;96770.63;5000954;28;20062;-81
2022/08/20 07:51:18;;;;;;;16.48;13.52;;;;;;;20.55;72.45;96780.91;4958991;29;20051;-79
2022/08/20 07:53:57;;;;;;;14.55;11.68;;;;;;;20.56;71.82;96782.53;5090572;23;20141;-79
2022/08/20 07:56:36;;;;;;;12.27;7.10;;;;;;;20.58;72.21;96786.59;5000289;28;20062;-78
2022/08/20 07:59:37;;;;;;;4.47;4.07;;;;;;;20.65;72.29;96797.03;4993090;28;20063;-82
2022/08/20 08:02:08;;;;;;;4.63;3.80;;;;;;;20.69;72.09;96789.41;4980340;28;20039;-82
2022/08/20 08:04:41;;;;;;;5.25;3.25;;;;;;;20.72;71.71;96797.66;4980661;28;20055;-83
2022/08/20 08:07:19;;;;;;;4.68;3.63;;;;;;;20.78;72.17;96798.56;4981123;28;20039;-82
2022/08/20 08:09:49;;;;;;;3.60;3.30;;;;;;;20.81;71.95;96795.41;4989647;23;20039;-81
2022/08/20 08:12:20;;;;;;;4.60;3.30;;;;;;;20.87;71.99;96807.69;4981086;28;20055;-81
2022/08/20 08:14:53;;;;;;;3.17;2.97;;;;;;;20.92;71.44;96801.66;4980582;28;20111;-80
2022/08/20 08:17:26;;;;;;;4.10;3.28;;;;;;;20.95;71.11;96802.00;4980381;28;20023;-78
2022/08/20 08:19:57;;;;;;;3.67;3.38;;;;;;;20.98;70.69;96795.41;4980724;28;20035;-80
2022/08/20 08:22:31;;;;;;;5.93;3.75;;;;;;;21.01;71.03;96808.16;4980765;28;20091;-80
2022/08/20 08:25:01;;;;;;;4.53;4.13;;;;;;;21.04;70.42;96798.94;4980662;28;20043;-79
2022/08/20 08:27:34;;;;;;;4.03;3.63;;;;;;;21.05;70.54;96803.97;4980808;28;20035;-80
2022/08/20 08:30:09;;;;;;;4.72;3.72;;;;;;;21.07;70.46;96801.09;4980529;28;20035;-79
2022/08/20 08:33:26;;;;;;;4.68;4.22;;;;;;;21.07;70.84;96801.88;4980539;28;20047;-80
2022/08/20 08:35:33;;;;;;;4.90;3.95;;;;;;;21.09;71.05;96799.00;4980349;28;20055;-79
2022/08/20 08:38:04;;;;;;;4.05;3.72;;;;;;;21.12;72.28;96795.84;4980437;28;20070;-81
2022/08/20 08:40:43;;;;;;;4.97;3.58;;;;;;;21.14;71.61;96794.56;4980446;28;20102;-79
2022/08/20 08:43:26;;;;;;;3.90;3.58;;;;;;;21.17;71.09;96795.94;4980865;28;20063;-81
2022/08/20 08:46:02;;;;;;;4.07;3.20;;;;;;;21.20;72.31;96798.88;4980392;28;20074;-80
2022/08/20 08:48:37;;;;;;;3.70;3.40;;;;;;;21.23;72.12;96797.63;4980327;28;20071;-80
2022/08/20 08:51:11;;;;;;;4.43;4.03;;;;;;;21.26;71.00;96799.78;4980118;28;20047;-81
2022/08/20 08:53:55;;;;;;;4.75;4.35;;;;;;;21.26;71.06;96794.47;4980363;28;20042;-82
2022/08/20 08:56:29;;;;;;;4.78;4.30;;;;;;;21.28;72.46;96800.31;4980431;28;20039;-81
2022/08/20 08:59:13;;;;;;;4.78;4.10;;;;;;;21.30;71.58;96798.22;4979849;28;20031;-80
2022/08/20 09:01:48;;;;;;;4.65;4.22;;;;;;;21.34;71.93;96799.34;4979970;28;20039;-81
2022/08/20 09:04:30;;;;;;;4.22;3.72;;;;;;;21.38;72.39;96805.78;4980323;28;20107;-80
2022/08/20 09:07:03;;;;;;;5.38;4.60;;;;;;;21.41;71.64;96796.53;4979678;28;20079;-81
2022/08/20 09:09:39;;;;;;;4.45;4.03;;;;;;;21.45;71.32;96788.88;4979984;28;20046;-80
2022/08/20 09:12:16;;;;;;;4.05;3.65;;;;;;;21.48;71.52;96794.50;4980215;28;20070;-80
2022/08/20 09:14:49;;;;;;;9.48;3.83;;;;;;;21.53;71.42;96796.41;4980136;28;20069;-80
2022/08/20 09:17:24;;;;;;;5.90;3.55;;;;;;;21.59;70.87;96803.41;4980264;28;20031;-82
2022/08/20 09:19:59;;;;;;;3.63;3.22;;;;;;;21.65;71.09;96815.69;4980025;28;20031;-80
2022/08/20 09:22:41;;;;;;;3.67;3.30;;;;;;;21.72;71.11;96816.28;4979867;28;20042;-80
2022/08/20 09:25:14;;;;;;;5.97;3.25;;;;;;;21.77;69.63;96815.56;4979761;28;20071;-81
2022/08/20 09:27:45;;;;;;;4.38;3.03;;;;;;;21.77;69.11;96804.94;4980057;28;20057;-80
2022/08/20 09:30:41;;;;;;;3.42;2.65;;;;;;;21.81;69.42;96809.50;4979634;28;20079;-79
2022/08/20 09:36:34;;;;;;;4.20;3.25;;;;;;;21.94;68.80;96803.00;5036466;23;20158;-81
2022/08/20 09:39:46;;;;;;;2.83;2.60;;;;;;;22.00;69.44;96812.63;5000930;28;20108;-82
2022/08/20 09:42:27;;;;;;;3.08;2.88;;;;;;;22.07;69.21;96807.13;5000785;28;20031;-82
2022/08/20 09:45:17;;;;;;;3.00;2.80;;;;;;;22.12;68.34;96799.19;4987651;23;20061;-79
2022/08/20 09:47:49;;;;;;;3.47;3.17;;;;;;;22.16;67.52;96797.66;4979051;28;20091;-79
2022/08/20 09:50:30;;;;;;;3.20;2.90;;;;;;;22.17;67.56;96801.94;4978441;28;20063;-78
2022/08/20 09:53:02;;;;;;;3.08;2.70;;;;;;;22.18;67.79;96792.09;4979211;28;20051;-79
2022/08/20 09:55:38;;;;;;;2.67;2.47;;;;;;;22.16;67.41;96795.00;4978794;28;20098;-80
2022/08/20 09:58:20;;;;;;;5.20;4.70;;;;;;;22.15;67.01;96787.25;4979220;28;20035;-81
2022/08/20 10:01:00;;;;;;;4.43;3.30;;;;;;;22.16;66.91;96794.19;4979131;28;20040;-79
2022/08/20 10:03:35;;;;;;;5.57;2.50;;;;;;;22.16;66.97;96787.03;4980037;28;20050;-80
2022/08/20 10:06:13;;;;;;;4.80;4.00;;;;;;;22.21;68.30;96783.59;4980031;28;20058;-81
2022/08/20 10:08:46;;;;;;;3.38;3.08;;;;;;;22.26;67.72;96793.50;4979750;28;20035;-81
2022/08/20 10:11:17;;;;;;;4.10;3.58;;;;;;;22.28;68.29;96788.75;4980418;28;20047;-82
2022/08/20 10:13:53;;;;;;;5.07;3.28;;;;;;;22.28;68.38;96791.41;4966989;28;20031;-80
2022/08/20 10:16:23;;;;;;;4.57;3.50;;;;;;;22.29;68.76;96787.72;4982746;28;20038;-80
2022/08/20 10:18:53;;;;;;;3.60;3.30;;;;;;;22.30;68.71;96787.47;4982530;28;20065;-80
2022/08/20 10:34:51;;;;;;;3.40;2.55;;;;;;;22.68;65.41;96779.53;5037670;23;20055;-79
2022/08/20 10:37:25;;;;;;;2.78;2.58;;;;;;;22.69;65.61;96773.16;5001991;28;20060;-78
2022/08/20 10:40:01;;;;;;;3.88;2.65;;;;;;;22.73;65.06;96784.88;5001884;28;20047;-80
2022/08/20 10:42:34;;;;;;;2.72;2.38;;;;;;;22.73;65.73;96784.88;5001986;28;20090;-79
2022/08/20 10:48:07;;;;;;;47.50;38.97;;;;;;;22.81;66.61;96773.78;5000835;28;20081;-80
2022/08/20 10:50:43;;;;;;;53.05;41.33;;;;;;;22.87;66.97;96767.44;5001205;28;20030;-80
2022/08/20 10:53:15;;;;;;;22.60;18.45;;;;;;;22.92;66.67;96759.47;5001102;28;20054;-79
2022/08/20 10:55:46;;;;;;;6.90;6.18;;;;;;;22.97;65.75;96762.16;5001566;28;20094;-80
2022/08/20 10:58:21;;;;;;;3.83;3.53;;;;;;;23.02;65.47;96750.78;5001574;28;20046;-79
2022/08/20 11:00:58;;;;;;;5.07;3.67;;;;;;;23.09;65.90;96753.19;5000023;28;20031;-79
2022/08/20 11:03:32;;;;;;;4.75;4.10;;;;;;;23.14;65.13;96755.91;5001526;28;20030;-79
2022/08/20 11:06:07;;;;;;;3.03;2.72;;;;;;;23.18;64.20;96763.13;5000346;28;20058;-81
2022/08/20 11:08:51;;;;;;;3.47;3.17;;;;;;;23.20;63.71;96765.53;5380927;23;20031;-79
2022/08/20 11:11:26;;;;;;;3.72;3.05;;;;;;;23.24;63.28;96761.25;5001111;28;20071;-78
2022/08/20 11:13:58;;;;;;;;;;;;;;;23.30;63.58;96765.56;5001565;28;20031;-79
2022/08/20 11:16:31;;;;;;;3.33;3.05;;;;;;;23.33;62.90;96761.56;5001137;28;19914;-79
2022/08/20 11:19:16;;;;;;;6.07;5.47;;;;;;;23.35;62.21;96760.28;5000588;28;20053;-79
2022/08/20 11:21:53;;;;;;;7.32;6.88;;;;;;;23.41;62.82;96751.22;5000563;28;20050;-79
2022/08/20 11:24:33;;;;;;;51.63;43.45;;;;;;;23.43;61.74;96750.97;5000857;28;20050;-79
2022/08/20 11:27:10;;;;;;;826.35;711.38;;;;;;;23.47;61.95;96751.28;5001016;28;20085;-79
2022/08/20 11:29:55;;;;;;;522.33;464.70;;;;;;;23.51;62.55;96753.16;4999106;28;20042;-80
2022/08/20 11:32:34;;;;;;;81.65;65.50;;;;;;;23.55;61.18;96756.88;5000370;28;20078;-79
2022/08/20 11:35:08;;;;;;;137.57;97.80;;;;;;;23.59;61.41;96746.50;5000903;28;20106;-81
2022/08/20 11:38:09;;;;;;;84.35;63.92;;;;;;;23.68;60.66;96747.63;1264625;27;20068;-81
2022/08/20 11:40:51;;;;;;;24.75;17.42;;;;;;;23.74;60.25;96762.53;4962289;28;20047;-79
2022/08/20 11:43:27;;;;;;;6.22;4.45;;;;;;;23.71;59.25;96781.72;4962155;28;20043;-79
2022/08/20 11:46:01;;;;;;;4.40;3.17;;;;;;;23.61;59.25;96789.66;4961554;28;20040;-79
2022/08/20 11:48:37;;;;;;;38.72;33.70;;;;;;;23.44;60.35;96790.66;4961542;28;20035;-79
2022/08/20 11:51:17;;;;;;;17.70;9.85;;;;;;;23.28;60.95;96810.25;4961930;28;20051;-79
2022/08/20 11:53:54;;;;;;;20.67;7.63;;;;;;;23.10;62.74;96816.00;4961228;28;20036;-79
2022/08/20 11:56:30;;;;;;;12.60;4.38;;;;;;;22.93;62.97;96811.59;4961780;28;20088;-79
2022/08/20 12:04:13;;;;;;;9.95;2.90;;;;;;;22.55;63.76;96792.19;4940808;29;20048;-80
2022/08/20 12:06:44;;;;;;;11.98;6.40;;;;;;;22.45;64.24;96794.75;4942528;29;20058;-79
2022/08/20 12:09:19;;;;;;;6.15;2.67;;;;;;;22.37;65.85;96803.19;4942641;29;20036;-78
2022/08/20 12:11:55;;;;;;;4.60;2.63;;;;;;;22.29;65.78;96801.78;4942545;29;20043;-79
2022/08/20 12:17:13;;;;;;;4.22;2.05;;;;;;;22.11;65.65;96812.75;5045374;23;20042;-81
2022/08/20 12:19:44;;;;;;;2.50;1.27;;;;;;;22.00;66.17;96817.16;4999832;28;20035;-81
2022/08/20 12:22:15;;;;;;;3.92;1.23;;;;;;;21.89;66.38;96818.88;4999804;28;20047;-79
2022/08/20 12:24:58;;;;;;;2.00;1.42;;;;;;;21.79;66.97;96810.81;4999907;28;20055;-79
2022/08/20 12:27:36;;;;;;;3.75;1.17;;;;;;;21.68;66.75;96803.78;4999641;28;20031;-79
2022/08/20 12:30:12;;;;;;;2.85;1.70;;;;;;;21.59;68.06;96814.03;4999540;28;20058;-80
2022/08/20 12:32:43;;;;;;;5.15;1.20;;;;;;;21.53;67.95;96809.69;4999495;28;20086;-79
2022/08/20 12:35:18;;;;;;;3.40;1.92;;;;;;;21.47;69.76;96808.84;4998555;28;20074;-78
2022/08/20 12:37:48;;;;;;;1.67;1.20;;;;;;;21.45;70.08;96805.63;4999363;28;20039;-79
2022/08/20 12:40:29;;;;;;;1.63;1.52;;;;;;;21.43;69.91;96801.59;4999296;28;20031;-79
2022/08/20 12:43:02;;;;;;;6.93;1.73;;;;;;;21.38;69.67;96797.81;4999422;28;20065;-79
2022/08/20 12:45:37;;;;;;;1.92;1.83;;;;;;;21.39;70.08;96804.72;4999015;28;20050;-79
2022/08/20 12:50:51;;;;;;;7.70;1.90;;;;;;;21.51;71.09;96807.28;1205788;26;20116;-80
2022/08/20 12:56:05;;;;;;;3.95;2.30;;;;;;;21.67;71.33;96802.97;5122489;23;20037;-81
2022/08/20 12:58:37;;;;;;;4.28;3.60;;;;;;;21.74;71.75;96814.19;4999722;28;20042;-80
2022/08/20 13:01:10;;;;;;;3.97;3.53;;;;;;;21.78;72.91;96811.88;4999569;28;20030;-80
2022/08/20 13:03:40;;;;;;;3.42;3.13;;;;;;;21.81;72.41;96804.19;4999196;28;20081;-79
2022/08/20 13:06:17;;;;;;;14.60;13.00;;;;;;;21.85;72.23;96825.75;4999060;28;20059;-79
2022/08/20 13:09:01;;;;;;;18.63;15.88;;;;;;;21.89;73.94;96816.25;4999016;28;20054;-79
2022/08/20 13:11:36;;;;;;;3.10;2.80;;;;;;;21.92;72.29;96817.59;4998583;28;20047;-78
2022/08/20 13:14:10;;;;;;;1.85;1.75;;;;;;;21.96;72.01;96821.34;4999123;28;20035;-79
2022/08/20 13:16:40;;;;;;;2.50;2.30;;;;;;;22.00;72.26;96819.81;4999344;28;20090;-79
2022/08/20 13:21:57;;;;;;;2.60;2.38;;;;;;;22.04;71.39;96836.84;5005234;23;20142;-83
2022/08/20 13:27:18;;;;;;;2.35;2.15;;;;;;;22.01;70.80;96840.00;5104339;23;20043;-79
2022/08/20 13:29:54;;;;;;;2.87;2.50;;;;;;;22.00;71.27;96841.06;4987118;28;20031;-80
2022/08/20 13:32:31;;;;;;;2.53;2.33;;;;;;;21.96;70.47;96835.44;4979861;28;20309;-81
2022/08/20 13:35:13;;;;;;;2.50;2.30;;;;;;;21.96;70.54;96832.78;4979918;28;20163;-79
2022/08/20 13:37:51;;;;;;;3.92;3.58;;;;;;;21.95;70.50;96838.31;5045696;23;20035;-79
2022/08/20 13:40:24;;;;;;;2.47;2.03;;;;;;;21.91;69.88;96840.69;5064292;23;20074;-80
2022/08/20 13:43:03;;;;;;;10.10;6.85;;;;;;;21.86;67.60;96840.63;4998512;28;20051;-79
2022/08/20 13:45:35;;;;;;;20.58;15.80;;;;;;;21.83;68.14;96835.00;5000003;28;20050;-80
2022/08/20 13:48:08;;;;;;;9.18;8.00;;;;;;;21.78;67.63;96823.28;5001978;28;20046;-79
2022/08/20 13:50:44;;;;;;;10.77;9.35;;;;;;;21.75;68.69;96825.63;5001761;28;20051;-78
2022/08/20 13:53:19;;;;;;;3.40;2.30;;;;;;;21.70;67.25;96823.72;5002101;28;20061;-78
2022/08/20 13:55:55;;;;;;;4.38;2.83;;;;;;;21.66;68.26;96822.59;5002080;28;20031;-79
2022/08/20 13:58:29;;;;;;;2.42;1.15;;;;;;;21.65;69.64;96815.69;5001861;28;20047;-79